ンジャメナ の空港の天気 - METARとTAF

ンジャメナ国際空港 ( FTTJ / NDJ ) - チャド ンジャメナ
飛行場実況気象(Metar)
観測時間11/30 18:00 WAT (11/30 17:00 UTC)
風向・風速西北西 3m/s
視程8000m
天気現象
なし
気温26℃
湿度30%
気圧1009hPa
METARFTTJ 301700Z 30006KT 8000 NSC 26/07 Q1009 NOSIG
過去の天気等 Google飛行場航空写真 Wunderground天気予報

過去48時間のMETAR

飛行場予報(TAF)
発表時間: 11/30 18:00 WAT (11/30 17:00 UTC)
予報対象時間: 30日19時 WAT ~ 2日1時 WAT
風向・風速北西 4m/s
視程7000m
なし
TAF FTTJ 301700Z 3018/0124 32008KT 7000 NSC